Time;durP1;ratioP1;P1;durP2;ratioP2;P2;SDS_P1;SDS_P2;PMS_P1;PMS_P2;Temp;Humidity;BMP_temperature;BMP_pressure;BME280_temperature;BME280_humidity;BME280_pressure;Samples;Min_cycle;Max_cycle;Signal;HPM_P1;HPM_P2
2023/01/05 00:02:16;;;;;;;13.18;4.85;;;10.20;99.90;;;;;;5099956;28;20036;-75
2023/01/05 00:04:44;;;;;;;8.05;3.60;;;10.20;99.90;;;;;;5096612;28;20485;-76
2023/01/05 00:07:09;;;;;;;7.15;4.00;;;10.20;99.90;;;;;;5096472;28;20036;-75
2023/01/05 00:09:37;;;;;;;9.07;3.75;;;10.20;99.90;;;;;;5078880;28;20044;-75
2023/01/05 00:23:04;;;;;;;6.90;3.72;;;10.10;99.90;;;;;;5097116;28;20467;-73
2023/01/05 00:25:33;;;;;;;9.65;4.03;;;10.10;99.90;;;;;;5097489;28;20094;-75
2023/01/05 00:27:59;;;;;;;10.05;4.80;;;10.10;99.90;;;;;;5112727;28;20047;-73
2023/01/05 00:30:31;;;;;;;20.13;7.82;;;10.10;99.90;;;;;;5117546;28;20112;-73
2023/01/05 00:32:57;;;;;;;16.73;5.53;;;10.10;99.90;;;;;;5116383;28;20375;-74
2023/01/05 00:35:22;;;;;;;9.07;4.70;;;10.10;99.90;;;;;;5096860;28;20075;-75
2023/01/05 00:37:49;;;;;;;8.50;4.70;;;10.10;99.90;;;;;;5091489;28;20099;-74
2023/01/05 00:40:18;;;;;;;11.05;5.40;;;10.10;99.90;;;;;;5097267;28;20043;-75
2023/01/05 00:42:44;;;;;;;13.75;4.13;;;10.10;99.90;;;;;;5096274;28;20071;-74
2023/01/05 00:45:12;;;;;;;11.68;5.10;;;10.10;99.90;;;;;;5096135;28;20512;-75
2023/01/05 00:47:38;;;;;;;10.23;5.22;;;10.10;99.90;;;;;;5096066;28;20094;-75
2023/01/05 00:50:05;;;;;;;15.80;5.03;;;10.10;99.90;;;;;;5096768;28;20044;-75
2023/01/05 00:52:30;;;;;;;10.38;4.95;;;10.10;99.90;;;;;;5096013;28;20040;-74
2023/01/05 00:54:56;;;;;;;13.63;4.68;;;10.10;99.90;;;;;;5095836;28;20043;-74
2023/01/05 00:57:22;;;;;;;16.45;6.28;;;10.10;99.90;;;;;;5095443;28;20185;-75
2023/01/05 00:59:47;;;;;;;18.67;5.68;;;10.10;99.90;;;;;;5077566;28;20043;-74
2023/01/05 01:02:13;;;;;;;13.30;5.18;;;10.10;99.90;;;;;;5095943;28;20476;-74
2023/01/05 01:04:40;;;;;;;9.63;4.65;;;10.10;99.90;;;;;;5077075;28;20492;-75
2023/01/05 01:07:06;;;;;;;9.02;4.97;;;10.00;99.90;;;;;;5095474;28;20046;-75
2023/01/05 01:09:32;;;;;;;19.17;5.50;;;10.10;99.90;;;;;;5095323;28;20055;-74
2023/01/05 01:11:58;;;;;;;13.30;5.78;;;10.10;99.90;;;;;;5077431;28;20044;-75
2023/01/05 01:14:24;;;;;;;19.35;5.45;;;10.10;99.90;;;;;;5095504;28;20097;-76
2023/01/05 01:16:49;;;;;;;11.45;4.60;;;10.10;99.90;;;;;;5096103;28;20494;-74
2023/01/05 01:19:19;;;;;;;14.60;5.05;;;10.10;99.90;;;;;;5077898;28;20082;-76
2023/01/05 01:21:45;;;;;;;15.30;4.50;;;10.10;99.90;;;;;;5095428;28;20044;-76
2023/01/05 01:24:22;;;;;;;13.43;4.45;;;10.20;99.90;;;;;;5095164;28;20429;-74
2023/01/05 01:26:48;;;;;;;11.07;5.05;;;10.20;99.90;;;;;;5092696;28;20052;-76
2023/01/05 01:29:16;;;;;;;11.93;5.07;;;10.20;99.90;;;;;;5076998;28;20126;-75
2023/01/05 01:31:42;;;;;;;16.77;5.25;;;10.20;99.90;;;;;;5095242;28;20481;-75
2023/01/05 01:34:08;;;;;;;13.65;4.25;;;10.20;99.90;;;;;;5095097;28;20040;-77
2023/01/05 01:36:34;;;;;;;16.30;4.78;;;10.20;99.90;;;;;;5094978;28;20452;-76
2023/01/05 01:39:00;;;;;;;8.77;4.68;;;10.20;99.90;;;;;;5077598;28;20043;-75
2023/01/05 01:41:26;;;;;;;12.60;5.05;;;10.20;99.90;;;;;;5095750;28;20040;-75
2023/01/05 01:43:54;;;;;;;16.40;6.60;;;10.30;99.90;;;;;;5095002;28;20043;-76
2023/01/05 01:46:21;;;;;;;13.98;5.07;;;10.30;99.90;;;;;;5094649;28;20036;-76
2023/01/05 01:49:04;;;;;;;15.75;6.97;;;10.30;99.90;;;;;;5076781;28;20082;-77
2023/01/05 01:51:46;;;;;;;8.07;4.82;;;10.30;99.90;;;;;;5094656;28;20079;-76
2023/01/05 01:54:16;;;;;;;11.57;4.60;;;10.30;99.90;;;;;;5095230;28;20144;-77
2023/01/05 01:56:47;;;;;;;11.98;4.78;;;10.30;99.90;;;;;;5076155;28;20086;-78
2023/01/05 01:59:13;;;;;;;12.70;4.47;;;10.30;99.90;;;;;;5077118;28;20044;-76
2023/01/05 02:01:39;;;;;;;12.25;4.60;;;10.40;99.90;;;;;;5094500;28;20122;-76
2023/01/05 02:04:05;;;;;;;9.93;4.22;;;10.40;99.90;;;;;;5094764;28;20071;-77
2023/01/05 02:06:31;;;;;;;14.95;5.85;;;10.30;99.90;;;;;;5094402;28;20090;-76
2023/01/05 02:08:57;;;;;;;12.38;6.40;;;10.40;99.90;;;;;;5095209;28;20098;-78
2023/01/05 02:11:57;;;;;;;15.48;5.43;;;10.40;99.90;;;;;;5094651;28;20044;-75
2023/01/05 02:14:51;;;;;;;13.60;5.47;;;10.40;99.90;;;;;;5094705;28;20074;-76
2023/01/05 02:17:56;;;;;;;12.90;4.78;;;10.30;99.90;;;;;;5095478;28;20040;-77
2023/01/05 02:20:37;;;;;;;17.33;5.07;;;10.30;99.90;;;;;;5077096;28;20055;-76
2023/01/05 02:23:36;;;;;;;18.10;6.63;;;10.30;99.90;;;;;;5094268;28;20036;-76
2023/01/05 02:26:14;;;;;;;13.10;4.80;;;10.30;99.90;;;;;;5093947;28;20077;-77
2023/01/05 02:28:51;;;;;;;7.65;3.90;;;10.30;99.90;;;;;;5059867;28;20055;-75
2023/01/05 02:31:21;;;;;;;12.38;5.10;;;10.40;99.90;;;;;;5076533;28;20050;-76
2023/01/05 02:34:06;;;;;;;13.77;6.10;;;10.30;99.90;;;;;;5093970;28;20055;-77
2023/01/05 02:36:57;;;;;;;18.85;7.20;;;10.30;99.90;;;;;;5094588;28;20361;-75
2023/01/05 02:39:30;;;;;;;11.05;4.65;;;10.30;99.90;;;;;;5095114;28;20157;-77
2023/01/05 02:42:02;;;;;;;12.40;4.32;;;10.30;99.90;;;;;;5094271;28;20052;-77
2023/01/05 02:44:30;;;;;;;9.35;4.45;;;10.30;99.90;;;;;;5094734;28;20083;-77
2023/01/05 02:47:05;;;;;;;9.88;4.85;;;10.20;99.90;;;;;;5093872;28;20119;-76
2023/01/05 02:49:36;;;;;;;10.65;4.97;;;10.30;99.90;;;;;;5076792;28;20044;-78
2023/01/05 02:52:04;;;;;;;13.35;5.45;;;10.20;99.90;;;;;;5094120;28;20032;-76
2023/01/05 02:54:42;;;;;;;20.60;5.28;;;10.20;99.90;;;;;;5093825;28;20044;-75
2023/01/05 02:57:12;;;;;;;18.98;5.70;;;10.10;99.90;;;;;;5059494;28;20105;-79
2023/01/05 02:59:46;;;;;;;17.65;5.68;;;10.10;99.90;;;;;;5075425;28;20072;-77
2023/01/05 03:02:21;;;;;;;14.13;5.05;;;10.10;99.90;;;;;;5093863;28;20058;-77
2023/01/05 03:04:51;;;;;;;12.02;5.22;;;10.10;99.90;;;;;;5075861;28;20036;-77
2023/01/05 03:07:24;;;;;;;8.95;4.28;;;10.10;99.90;;;;;;5076616;28;20441;-75
2023/01/05 03:09:51;;;;;;;8.73;5.32;;;10.10;99.90;;;;;;5098441;28;20071;-76
2023/01/05 03:15:29;;;;;;;12.25;4.47;;;10.10;99.90;;;;;;5098422;28;20411;-77
2023/01/05 03:17:58;;;;;;;16.70;4.90;;;10.10;99.90;;;;;;5097471;28;20066;-76
2023/01/05 03:20:28;;;;;;;6.90;4.28;;;10.10;99.90;;;;;;5097793;28;20101;-76
2023/01/05 03:37:12;;;;;;;10.68;4.88;;;10.00;99.90;;;;;;5097477;28;20056;-77
2023/01/05 03:39:41;;;;;;;10.10;5.78;;;10.00;99.90;;;;;;5097609;28;20094;-76
2023/01/05 03:42:08;;;;;;;14.88;5.45;;;10.00;99.90;;;;;;5097170;28;20044;-76
2023/01/05 03:44:39;;;;;;;14.65;6.05;;;10.10;99.90;;;;;;5097699;28;20044;-75
2023/01/05 03:47:05;;;;;;;11.40;5.20;;;10.10;99.90;;;;;;5097047;28;20051;-75
2023/01/05 03:49:31;;;;;;;8.32;5.15;;;10.10;99.90;;;;;;5096887;28;20048;-77
2023/01/05 03:51:57;;;;;;;14.00;5.95;;;10.10;99.90;;;;;;5096729;28;20115;-75
2023/01/05 03:54:23;;;;;;;9.25;6.25;;;10.10;99.90;;;;;;5096858;28;20090;-75
2023/01/05 03:56:48;;;;;;;14.15;5.20;;;10.10;99.90;;;;;;5078611;28;20489;-77
2023/01/05 03:59:14;;;;;;;17.67;5.70;;;10.20;99.90;;;;;;5096705;28;20046;-74
2023/01/05 04:01:40;;;;;;;15.82;4.50;;;10.10;99.90;;;;;;5097220;28;20067;-76
2023/01/05 04:04:05;;;;;;;11.93;5.03;;;10.10;99.90;;;;;;5096596;28;20079;-75
2023/01/05 04:06:31;;;;;;;16.42;5.88;;;10.10;99.90;;;;;;5096772;28;20382;-76
2023/01/05 04:08:57;;;;;;;13.85;5.35;;;10.20;99.90;;;;;;5096905;28;20046;-75
2023/01/05 04:11:23;;;;;;;11.60;4.80;;;10.20;99.90;;;;;;5104765;28;20044;-77
2023/01/05 04:13:49;;;;;;;15.60;5.32;;;10.20;99.90;;;;;;5096626;28;20040;-76
2023/01/05 04:16:15;;;;;;;13.30;5.13;;;10.20;99.90;;;;;;5078530;28;20048;-77
2023/01/05 04:18:41;;;;;;;11.77;4.95;;;10.10;99.90;;;;;;5095929;28;20119;-75
2023/01/05 04:21:08;;;;;;;12.27;6.35;;;10.20;99.90;;;;;;5096331;28;20131;-76
2023/01/05 04:23:33;;;;;;;11.75;5.10;;;10.10;99.90;;;;;;5096395;28;20135;-77
2023/01/05 04:25:59;;;;;;;16.13;4.93;;;10.10;99.90;;;;;;5078420;28;20504;-76
2023/01/05 04:28:25;;;;;;;8.10;4.82;;;10.10;99.90;;;;;;5096259;28;20408;-76
2023/01/05 04:30:53;;;;;;;18.38;7.63;;;10.10;99.90;;;;;;5061468;28;20040;-74
2023/01/05 04:33:20;;;;;;;11.80;5.38;;;10.10;99.90;;;;;;5095939;28;20047;-76
2023/01/05 04:35:46;;;;;;;15.82;5.85;;;10.10;99.90;;;;;;5096640;28;20055;-76
2023/01/05 04:38:12;;;;;;;12.95;5.55;;;10.00;99.90;;;;;;5096008;28;20048;-74
2023/01/05 04:40:38;;;;;;;9.52;4.78;;;10.00;99.90;;;;;;5077996;28;20087;-75
2023/01/05 04:43:05;;;;;;;14.85;5.32;;;10.00;99.90;;;;;;5078255;28;20129;-76
2023/01/05 04:45:31;;;;;;;18.85;6.47;;;10.10;99.90;;;;;;5096107;28;20044;-77
2023/01/05 04:47:57;;;;;;;15.20;4.80;;;10.10;99.90;;;;;;5078575;28;20350;-75
2023/01/05 04:50:22;;;;;;;11.70;5.50;;;10.10;99.90;;;;;;5095819;28;20047;-75
2023/01/05 04:52:48;;;;;;;11.00;4.78;;;10.20;99.90;;;;;;5096092;28;20109;-76
2023/01/05 04:55:14;;;;;;;15.45;5.45;;;10.20;99.90;;;;;;5095636;28;20040;-74
2023/01/05 04:57:40;;;;;;;11.45;5.35;;;10.20;99.90;;;;;;5077717;28;20040;-77
2023/01/05 05:00:07;;;;;;;10.00;5.30;;;10.20;99.90;;;;;;5077560;28;20081;-75
2023/01/05 05:02:33;;;;;;;12.10;4.70;;;10.30;99.90;;;;;;5077681;28;20376;-75
2023/01/05 05:04:59;;;;;;;8.43;5.05;;;10.30;99.90;;;;;;5095544;28;20122;-75
2023/01/05 05:07:25;;;;;;;13.45;5.78;;;10.30;99.90;;;;;;5095544;28;20040;-76
2023/01/05 05:09:51;;;;;;;11.73;5.80;;;10.30;99.90;;;;;;5095353;28;20044;-75
2023/01/05 05:12:19;;;;;;;10.00;4.90;;;10.30;99.90;;;;;;5078137;28;20123;-76
2023/01/05 05:14:46;;;;;;;11.57;5.72;;;10.30;99.90;;;;;;5095552;28;20575;-75
2023/01/05 05:17:12;;;;;;;10.15;4.70;;;10.30;99.90;;;;;;5095672;28;20126;-75
2023/01/05 05:19:38;;;;;;;9.57;4.50;;;10.30;99.90;;;;;;5095961;28;20079;-75
2023/01/05 05:22:03;;;;;;;11.60;5.45;;;10.30;99.90;;;;;;5077619;28;20047;-75
2023/01/05 05:24:29;;;;;;;18.02;5.30;;;10.30;99.90;;;;;;5095185;28;20040;-75
2023/01/05 05:26:56;;;;;;;14.18;5.13;;;10.30;99.90;;;;;;5072992;28;20094;-75
2023/01/05 05:29:22;;;;;;;8.13;4.60;;;10.30;99.90;;;;;;5074651;28;20051;-75
2023/01/05 05:31:48;;;;;;;8.68;4.88;;;10.30;99.90;;;;;;5073261;28;20040;-74
2023/01/05 05:34:14;;;;;;;10.60;4.80;;;10.40;99.90;;;;;;5074717;28;20060;-75
2023/01/05 05:36:40;;;;;;;6.53;4.20;;;10.40;99.90;;;;;;5074662;28;20472;-75
2023/01/05 05:39:06;;;;;;;13.40;5.60;;;10.40;99.90;;;;;;5074651;28;20036;-76
2023/01/05 05:41:31;;;;;;;15.85;5.60;;;10.40;99.90;;;;;;5074655;28;20131;-78
2023/01/05 05:43:59;;;;;;;14.93;5.25;;;10.40;99.90;;;;;;5075539;28;20449;-75
2023/01/05 05:46:29;;;;;;;13.18;5.40;;;10.40;99.90;;;;;;5075425;28;20036;-75
2023/01/05 05:48:55;;;;;;;8.90;4.35;;;10.40;99.90;;;;;;5075449;28;20102;-78
2023/01/05 05:51:22;;;;;;;13.10;5.10;;;10.30;99.90;;;;;;5075720;28;20142;-76
2023/01/05 05:53:48;;;;;;;13.10;4.25;;;10.30;99.90;;;;;;5075260;28;20044;-75
2023/01/05 05:56:13;;;;;;;10.77;5.15;;;10.30;99.90;;;;;;5073464;28;20062;-76
2023/01/05 05:58:39;;;;;;;11.13;5.43;;;10.30;99.90;;;;;;5074478;28;20058;-76
2023/01/05 06:01:05;;;;;;;13.23;5.13;;;10.30;99.90;;;;;;5073213;28;20048;-75
2023/01/05 06:03:30;;;;;;;8.38;4.65;;;10.30;99.90;;;;;;5075153;28;20042;-75
2023/01/05 06:05:56;;;;;;;22.23;5.70;;;10.30;99.90;;;;;;5073181;28;20193;-77
2023/01/05 06:08:22;;;;;;;10.25;5.25;;;10.30;99.90;;;;;;5072818;28;20052;-76
2023/01/05 06:10:49;;;;;;;16.17;5.40;;;10.30;99.90;;;;;;5073973;28;20048;-75
2023/01/05 06:13:15;;;;;;;7.65;4.22;;;10.30;99.90;;;;;;5074337;28;20043;-76
2023/01/05 06:15:41;;;;;;;10.85;4.55;;;10.30;99.90;;;;;;5073171;28;20041;-77
2023/01/05 06:18:07;;;;;;;8.75;4.40;;;10.30;99.90;;;;;;5074269;28;20065;-74
2023/01/05 06:20:33;;;;;;;8.10;4.68;;;10.30;99.90;;;;;;5074195;28;20149;-76
2023/01/05 06:22:59;;;;;;;13.02;4.40;;;10.30;99.90;;;;;;5073154;28;20411;-75
2023/01/05 06:25:25;;;;;;;11.60;7.68;;;10.40;99.90;;;;;;5073318;28;20070;-75
2023/01/05 06:27:50;;;;;;;12.10;4.80;;;10.40;99.90;;;;;;5074628;28;20055;-75
2023/01/05 06:30:16;;;;;;;8.73;5.15;;;10.40;99.90;;;;;;5074057;28;20032;-76
2023/01/05 06:32:42;;;;;;;10.10;5.28;;;10.40;99.90;;;;;;5073488;28;20048;-75
2023/01/05 06:35:08;;;;;;;14.60;5.40;;;10.40;99.90;;;;;;5073886;28;20036;-75
2023/01/05 06:37:33;;;;;;;13.82;5.38;;;10.40;99.90;;;;;;5073818;28;20043;-73
2023/01/05 06:40:00;;;;;;;13.18;5.78;;;10.40;99.90;;;;;;5072920;28;20051;-74
2023/01/05 06:42:26;;;;;;;12.18;4.28;;;10.30;99.90;;;;;;5077069;28;20090;-72
2023/01/05 06:44:51;;;;;;;10.85;4.30;;;10.30;99.90;;;;;;5077965;28;20531;-74
2023/01/05 06:47:17;;;;;;;8.07;4.70;;;10.30;99.90;;;;;;5078249;28;20127;-73
2023/01/05 06:49:43;;;;;;;8.45;4.45;;;10.30;99.90;;;;;;5077827;28;20431;-74
2023/01/05 06:52:09;;;;;;;11.40;4.80;;;10.30;99.90;;;;;;5082183;28;20048;-71
2023/01/05 06:54:35;;;;;;;7.18;4.32;;;10.30;99.90;;;;;;5087997;28;20123;-74
2023/01/05 06:57:00;;;;;;;9.63;4.38;;;10.40;99.90;;;;;;5077339;28;20449;-73
2023/01/05 06:59:26;;;;;;;13.73;4.57;;;10.40;99.90;;;;;;5078353;28;20036;-76
2023/01/05 07:01:52;;;;;;;7.55;3.72;;;10.30;99.90;;;;;;5077571;28;20056;-74
2023/01/05 07:04:18;;;;;;;5.60;4.20;;;10.40;99.90;;;;;;5077405;28;20048;-73
2023/01/05 07:06:43;;;;;;;11.45;5.07;;;10.30;99.90;;;;;;5077920;28;20042;-75
2023/01/05 07:09:09;;;;;;;8.43;4.68;;;10.30;99.90;;;;;;5076059;28;20041;-75
2023/01/05 07:11:35;;;;;;;9.73;5.75;;;10.30;99.90;;;;;;5077110;28;20120;-74
2023/01/05 07:14:01;;;;;;;8.13;3.97;;;10.40;99.90;;;;;;5077396;28;20047;-75
2023/01/05 07:16:26;;;;;;;11.70;5.13;;;10.30;99.90;;;;;;5077254;28;20047;-75
2023/01/05 07:18:52;;;;;;;9.15;4.47;;;10.40;99.90;;;;;;5077232;28;20041;-74
2023/01/05 07:21:18;;;;;;;8.55;5.07;;;10.40;99.90;;;;;;5076080;28;20048;-73
2023/01/05 07:23:43;;;;;;;7.22;4.18;;;10.40;99.90;;;;;;5077173;28;20080;-74
2023/01/05 07:26:09;;;;;;;9.60;4.70;;;10.30;99.90;;;;;;5075605;28;20044;-74
2023/01/05 07:28:37;;;;;;;13.75;5.78;;;10.40;99.90;;;;;;5077832;28;20052;-73
2023/01/05 07:31:03;;;;;;;11.18;5.78;;;10.40;99.90;;;;;;5076930;28;20102;-74
2023/01/05 07:33:29;;;;;;;7.53;4.38;;;10.40;99.90;;;;;;5076903;28;20040;-74
2023/01/05 07:35:59;;;;;;;7.97;4.00;;;10.30;99.90;;;;;;5059575;28;20381;-75
2023/01/05 07:38:24;;;;;;;15.60;5.65;;;10.30;99.90;;;;;;5075906;28;20080;-74
2023/01/05 07:40:50;;;;;;;12.77;5.18;;;10.40;99.90;;;;;;5076843;28;20087;-75
2023/01/05 07:43:16;;;;;;;8.75;4.72;;;10.30;99.90;;;;;;5076708;28;20536;-74
2023/01/05 07:45:42;;;;;;;10.55;4.82;;;10.30;99.90;;;;;;5076660;28;20143;-74
2023/01/05 07:48:08;;;;;;;18.45;4.72;;;10.40;99.90;;;;;;5076601;28;20055;-75
2023/01/05 07:50:34;;;;;;;10.63;5.40;;;10.40;99.90;;;;;;5076472;28;20044;-75
2023/01/05 07:53:00;;;;;;;9.07;5.05;;;10.30;99.90;;;;;;5074653;28;20054;-74
2023/01/05 07:55:26;;;;;;;6.90;4.25;;;10.30;99.90;;;;;;5077245;28;20123;-77
2023/01/05 07:57:51;;;;;;;9.43;4.75;;;10.30;99.90;;;;;;5076586;28;20494;-75
2023/01/05 08:00:17;;;;;;;13.73;4.60;;;10.30;99.90;;;;;;5076530;28;20052;-75
2023/01/05 08:02:43;;;;;;;10.45;4.50;;;10.40;99.90;;;;;;5076228;28;20461;-74
2023/01/05 08:05:09;;;;;;;10.40;4.88;;;10.30;99.90;;;;;;5076113;28;20072;-75
2023/01/05 08:07:35;;;;;;;8.75;4.57;;;10.40;99.90;;;;;;5077264;28;20138;-74
2023/01/05 08:15:30;;;;;;;6.82;4.07;;;10.40;99.90;;;;;;5076226;28;20131;-75
2023/01/05 08:17:55;;;;;;;8.85;4.55;;;10.40;99.90;;;;;;5076163;28;20433;-75
2023/01/05 08:20:21;;;;;;;8.88;5.53;;;10.40;99.90;;;;;;5074976;28;20106;-76
2023/01/05 08:22:51;;;;;;;11.35;5.15;;;10.30;99.90;;;;;;5075898;28;20109;-74
2023/01/05 08:25:16;;;;;;;13.90;4.85;;;10.40;99.90;;;;;;5081335;28;20048;-76
2023/01/05 08:27:42;;;;;;;8.38;4.20;;;10.40;99.90;;;;;;5095862;28;20052;-73
2023/01/05 08:30:08;;;;;;;10.82;5.18;;;10.40;99.90;;;;;;5096311;28;20097;-74
2023/01/05 08:32:34;;;;;;;8.90;5.55;;;10.30;99.90;;;;;;5096720;28;20050;-74
2023/01/05 08:35:00;;;;;;;9.55;4.40;;;10.40;99.90;;;;;;5096922;28;20119;-75
2023/01/05 08:37:26;;;;;;;9.00;4.68;;;10.40;99.90;;;;;;5096457;28;20401;-74
2023/01/05 08:39:51;;;;;;;10.43;5.50;;;10.40;99.90;;;;;;5096359;28;20051;-75
2023/01/05 08:42:17;;;;;;;13.32;4.97;;;10.40;99.90;;;;;;5095945;28;20040;-75
2023/01/05 08:44:42;;;;;;;12.32;4.30;;;10.40;99.90;;;;;;5095782;28;20037;-77
2023/01/05 08:47:08;;;;;;;15.38;5.93;;;10.40;99.90;;;;;;5095831;28;20342;-75
2023/01/05 08:49:34;;;;;;;11.07;5.15;;;10.40;99.90;;;;;;5095672;28;20043;-75
2023/01/05 08:51:59;;;;;;;8.65;3.97;;;10.40;99.90;;;;;;5096207;28;20035;-74
2023/01/05 08:54:25;;;;;;;10.27;3.92;;;10.40;99.90;;;;;;5095606;28;20509;-75
2023/01/05 08:56:51;;;;;;;14.48;5.50;;;10.40;99.90;;;;;;5095621;28;20119;-74
2023/01/05 08:59:17;;;;;;;8.57;4.13;;;10.40;99.90;;;;;;5095650;28;20051;-74
2023/01/05 09:01:43;;;;;;;10.48;4.15;;;10.40;99.90;;;;;;5095629;28;20536;-75
2023/01/05 09:04:09;;;;;;;8.45;5.28;;;10.40;99.90;;;;;;5095995;28;20097;-76
2023/01/05 09:06:34;;;;;;;9.82;3.63;;;10.40;99.90;;;;;;5094507;28;20126;-75
2023/01/05 09:09:00;;;;;;;15.25;7.00;;;10.50;99.90;;;;;;5078424;28;20086;-74
2023/01/05 09:11:26;;;;;;;11.32;3.72;;;10.40;99.90;;;;;;5077946;28;20380;-74
2023/01/05 09:13:54;;;;;;;8.50;4.10;;;10.40;99.90;;;;;;5095400;28;20047;-77
2023/01/05 09:16:23;;;;;;;6.63;4.68;;;10.50;99.90;;;;;;5095272;28;20047;-74
2023/01/05 09:18:49;;;;;;;9.18;4.03;;;10.50;99.90;;;;;;5095075;28;20040;-73
2023/01/05 09:21:15;;;;;;;14.60;4.43;;;10.50;99.90;;;;;;5095225;28;20096;-74
2023/01/05 09:23:41;;;;;;;10.20;4.18;;;10.50;99.90;;;;;;5077084;28;20040;-74
2023/01/05 09:26:10;;;;;;;7.85;4.43;;;10.50;99.90;;;;;;5076823;28;20389;-73
2023/01/05 09:28:37;;;;;;;13.48;4.38;;;10.50;99.90;;;;;;5077632;28;20043;-73
2023/01/05 09:31:22;;;;;;;9.70;4.60;;;10.50;99.90;;;;;;5095557;28;20054;-73
2023/01/05 09:33:48;;;;;;;7.88;4.43;;;10.50;99.90;;;;;;5095703;28;20063;-73
2023/01/05 09:36:15;;;;;;;14.98;4.43;;;10.50;99.90;;;;;;5076883;28;20036;-74
2023/01/05 09:38:41;;;;;;;9.82;3.90;;;10.50;99.90;;;;;;5094812;28;20082;-74
2023/01/05 09:41:20;;;;;;;9.23;5.40;;;10.50;99.90;;;;;;5094933;28;20090;-74
2023/01/05 09:43:47;;;;;;;8.25;5.47;;;10.50;99.90;;;;;;5077589;28;20051;-73
2023/01/05 09:46:18;;;;;;;5.25;4.50;;;10.60;99.90;;;;;;5094664;28;20047;-74
2023/01/05 09:48:49;;;;;;;14.40;5.20;;;10.60;99.90;;;;;;5094516;28;20048;-74
2023/01/05 09:51:15;;;;;;;6.78;3.58;;;10.60;99.90;;;;;;5095457;28;20036;-74
2023/01/05 09:53:41;;;;;;;7.82;4.05;;;10.60;99.90;;;;;;5094496;28;20075;-74
2023/01/05 09:56:33;;;;;;;5.25;4.28;;;10.60;99.90;;;;;;5076652;28;20137;-74
2023/01/05 09:59:11;;;;;;;8.48;3.72;;;10.60;99.90;;;;;;5095175;28;20119;-73
2023/01/05 10:01:38;;;;;;;8.02;3.90;;;10.70;99.90;;;;;;5095086;28;20055;-75
2023/01/05 10:04:13;;;;;;;8.30;4.85;;;10.60;99.90;;;;;;5094514;28;20123;-73
2023/01/05 10:06:43;;;;;;;14.02;5.22;;;10.60;99.90;;;;;;5093878;28;20481;-73
2023/01/05 10:09:15;;;;;;;12.85;4.30;;;10.60;99.90;;;;;;5094258;28;20082;-73
2023/01/05 10:15:00;;;;;;;4.88;4.13;;;10.70;99.90;;;;;;5094953;28;20381;-74
2023/01/05 10:17:31;;;;;;;7.00;4.28;;;10.70;99.90;;;;;;5094551;28;20044;-74
2023/01/05 10:19:57;;;;;;;9.10;4.03;;;10.70;99.90;;;;;;5094878;28;20127;-74
2023/01/05 10:22:44;;;;;;;9.43;4.18;;;10.70;99.90;;;;;;5094120;28;20418;-74
2023/01/05 10:25:30;;;;;;;8.80;3.83;;;10.70;99.90;;;;;;5093831;28;20055;-74
2023/01/05 10:28:18;;;;;;;9.93;3.80;;;10.70;99.90;;;;;;5056190;28;20653;-74
2023/01/05 10:30:55;;;;;;;7.97;3.80;;;10.70;99.90;;;;;;5074086;28;20053;-74
2023/01/05 10:33:49;;;;;;;8.13;4.05;;;10.70;99.90;;;;;;5074259;28;20145;-73
2023/01/05 10:36:50;;;;;;;9.10;3.97;;;10.70;99.90;;;;;;5074339;28;20032;-74
2023/01/05 10:39:27;;;;;;;14.77;5.03;;;10.70;99.90;;;;;;5055930;28;20051;-73
2023/01/05 10:42:04;;;;;;;7.05;4.10;;;10.60;99.90;;;;;;5073815;28;20084;-74
2023/01/05 10:44:56;;;;;;;10.75;4.38;;;10.60;99.90;;;;;;5073588;28;20036;-74
2023/01/05 10:47:26;;;;;;;9.35;4.80;;;10.70;99.90;;;;;;5073536;28;20095;-74
2023/01/05 10:49:53;;;;;;;9.23;4.13;;;10.80;99.90;;;;;;5073840;28;20049;-74
2023/01/05 10:52:20;;;;;;;8.30;3.45;;;10.80;99.90;;;;;;5073249;28;20048;-73
2023/01/05 10:54:54;;;;;;;5.82;3.40;;;10.80;99.90;;;;;;5073108;28;20377;-73
2023/01/05 10:57:29;;;;;;;11.85;4.25;;;10.80;99.90;;;;;;5055685;28;20036;-74
2023/01/05 11:00:19;;;;;;;8.63;4.22;;;10.80;99.90;;;;;;5073498;28;20048;-74
2023/01/05 11:02:48;;;;;;;16.48;4.85;;;10.80;99.90;;;;;;5072827;28;20048;-74
2023/01/05 11:05:23;;;;;;;10.05;3.88;;;10.80;99.90;;;;;;5055983;28;20076;-75
2023/01/05 11:08:01;;;;;;;6.72;3.50;;;10.70;99.90;;;;;;5074646;28;20143;-74
2023/01/05 11:10:32;;;;;;;11.45;4.40;;;10.80;99.90;;;;;;5074404;28;20058;-74
2023/01/05 11:13:32;;;;;;;9.18;4.03;;;10.80;99.90;;;;;;5056013;28;20087;-74
2023/01/05 11:16:21;;;;;;;6.18;3.70;;;10.70;99.90;;;;;;5073468;28;20040;-74
2023/01/05 11:18:52;;;;;;;5.97;4.43;;;10.70;99.90;;;;;;5073458;28;20048;-74
2023/01/05 11:21:19;;;;;;;10.73;4.45;;;10.80;99.90;;;;;;5073277;28;20048;-74
2023/01/05 11:24:04;;;;;;;9.60;3.47;;;10.80;99.90;;;;;;5073329;28;20045;-74
2023/01/05 11:26:34;;;;;;;8.82;4.32;;;10.80;99.90;;;;;;5074051;28;20051;-74
2023/01/05 11:29:03;;;;;;;7.15;3.45;;;10.80;99.90;;;;;;5075191;28;20119;-74
2023/01/05 11:31:34;;;;;;;8.38;3.67;;;10.80;99.90;;;;;;5077225;28;20051;-74
2023/01/05 11:34:07;;;;;;;7.78;3.70;;;10.90;99.90;;;;;;5076769;28;20082;-74
2023/01/05 11:36:33;;;;;;;12.73;4.07;;;10.80;99.90;;;;;;5077447;28;20045;-74
2023/01/05 11:38:58;;;;;;;13.43;4.35;;;10.80;99.90;;;;;;5076815;28;20377;-74
2023/01/05 11:41:24;;;;;;;10.80;5.00;;;10.80;99.90;;;;;;5059159;28;20041;-74
2023/01/05 11:43:53;;;;;;;9.13;4.00;;;10.90;99.90;;;;;;5077601;28;20048;-74
2023/01/05 11:46:20;;;;;;;8.23;4.28;;;10.90;99.90;;;;;;5076564;28;20036;-74
2023/01/05 11:48:55;;;;;;;9.57;4.50;;;10.90;99.90;;;;;;5076769;28;20048;-74
2023/01/05 11:51:39;;;;;;;6.13;3.92;;;10.90;99.90;;;;;;5076650;28;20041;-73
2023/01/05 11:54:23;;;;;;;8.63;4.00;;;10.90;99.90;;;;;;5076553;28;20039;-74
2023/01/05 11:57:05;;;;;;;10.13;3.40;;;10.90;99.90;;;;;;5076844;28;20085;-74
2023/01/05 11:59:31;;;;;;;7.38;2.95;;;10.70;99.90;;;;;;5076447;28;20129;-73
2023/01/05 12:02:15;;;;;;;7.93;4.03;;;10.80;99.90;;;;;;5076404;28;20087;-73
2023/01/05 12:04:46;;;;;;;9.98;3.30;;;10.80;99.90;;;;;;5076403;28;20033;-73
2023/01/05 12:07:29;;;;;;;6.05;3.55;;;10.80;99.90;;;;;;5076088;28;20076;-73
2023/01/05 12:10:17;;;;;;;6.20;3.33;;;10.90;99.90;;;;;;5077288;28;20051;-73
2023/01/05 12:13:09;;;;;;;3.88;2.97;;;10.80;99.90;;;;;;5076308;28;20048;-72
2023/01/05 12:15:50;;;;;;;4.60;3.22;;;10.90;99.90;;;;;;5061918;28;20068;-72
2023/01/05 12:18:41;;;;;;;5.35;3.20;;;11.00;99.90;;;;;;5076521;28;20459;-72
2023/01/05 12:21:24;;;;;;;5.55;4.28;;;11.10;99.90;;;;;;5077073;28;20123;-73
2023/01/05 12:24:12;;;;;;;6.97;3.55;;;11.20;99.90;;;;;;5058434;28;20097;-72
2023/01/05 12:26:50;;;;;;;6.63;3.10;;;11.30;99.90;;;;;;5076214;28;20111;-72
2023/01/05 12:29:39;;;;;;;5.03;2.78;;;11.30;99.90;;;;;;5075980;28;20493;-73
2023/01/05 12:32:11;;;;;;;5.32;2.90;;;11.40;99.90;;;;;;5076013;28;20052;-72
2023/01/05 12:34:39;;;;;;;4.28;3.03;;;11.50;99.90;;;;;;5076832;28;20044;-73
2023/01/05 12:37:14;;;;;;;7.90;4.65;;;11.50;99.90;;;;;;5075810;28;20090;-73
2023/01/05 12:39:59;;;;;;;11.02;3.28;;;11.60;99.90;;;;;;5076131;28;20036;-72
2023/01/05 12:42:46;;;;;;;8.38;3.45;;;11.60;99.90;;;;;;5075943;28;20040;-72
2023/01/05 12:45:20;;;;;;;7.50;3.33;;;11.50;99.90;;;;;;5076843;28;20040;-73
2023/01/05 12:48:06;;;;;;;8.55;3.70;;;11.50;99.90;;;;;;5077561;28;20040;-72
2023/01/05 12:50:42;;;;;;;10.93;4.55;;;11.40;99.90;;;;;;5058546;28;20492;-73
2023/01/05 12:53:32;;;;;;;9.40;4.05;;;11.40;99.90;;;;;;5059476;28;20346;-72
2023/01/05 12:56:05;;;;;;;6.70;4.40;;;11.40;99.90;;;;;;5075650;28;20124;-72
2023/01/05 12:58:39;;;;;;;10.73;4.00;;;11.50;99.90;;;;;;5075460;28;20036;-72
2023/01/05 13:01:15;;;;;;;11.23;3.97;;;11.50;99.90;;;;;;5076208;28;20051;-73
2023/01/05 13:03:55;;;;;;;8.95;4.22;;;11.50;99.90;;;;;;5075155;28;20119;-72
2023/01/05 13:06:23;;;;;;;9.45;4.78;;;11.40;99.90;;;;;;5074924;28;20072;-72
2023/01/05 13:09:01;;;;;;;7.95;4.22;;;11.40;99.90;;;;;;5075380;28;20087;-72
2023/01/05 13:11:34;;;;;;;10.15;4.97;;;11.30;99.90;;;;;;5074984;28;20127;-72
2023/01/05 13:14:36;;;;;;;12.05;3.72;;;11.30;99.90;;;;;;5075086;28;20041;-72
2023/01/05 13:17:29;;;;;;;10.07;3.70;;;11.40;99.90;;;;;;5074966;28;20039;-73
2023/01/05 13:20:01;;;;;;;;;;;11.30;99.90;;;;;;5076213;28;20044;-72
2023/01/05 13:22:31;;;;;;;9.38;5.03;;;11.30;99.90;;;;;;5075805;28;19979;-73
2023/01/05 13:25:08;;;;;;;9.10;3.65;;;11.20;99.90;;;;;;5057313;28;20131;-73
2023/01/05 13:27:34;;;;;;;7.85;3.75;;;11.30;99.90;;;;;;5074871;28;20040;-73
2023/01/05 13:30:02;;;;;;;15.38;5.47;;;11.30;99.90;;;;;;5074822;28;20051;-73
2023/01/05 13:32:55;;;;;;;8.65;4.28;;;11.20;99.90;;;;;;5075097;28;20075;-74
2023/01/05 13:35:35;;;;;;;7.95;4.63;;;11.30;99.90;;;;;;5033313;28;20052;-73